Time,TemperatureF,DewpointF,PressureIn,WindDirection,WindDirectionDegrees,WindSpeedMPH,WindSpeedGustMPH,Humidity,HourlyPrecipIn,Conditions,Clouds,dailyrainin,SolarRadiationWatts/m^2,SoftwareType,DateUTC
2013-02-04 00:11:00,25.0,19.0,-100.00,West,259,4.0,8.0,78,0.00,,,0.00,0.000000,,2013-02-04 07:11:00,
2013-02-04 00:21:00,25.0,19.0,-100.00,West,259,4.0,8.0,78,0.00,,,0.00,0.000000,,2013-02-04 07:21:00,
2013-02-04 00:31:00,25.0,19.0,-100.00,West,259,4.0,8.0,78,0.00,,,0.00,0.000000,,2013-02-04 07:31:00,
2013-02-04 00:41:00,25.0,19.0,-100.00,West,259,4.0,8.0,78,0.00,,,0.00,0.000000,,2013-02-04 07:41:00,
2013-02-04 01:11:00,21.0,17.0,-100.00,South,174,6.0,8.0,86,0.00,,,0.00,0.000000,,2013-02-04 08:11:00,
2013-02-04 01:21:00,21.0,17.0,-100.00,South,174,6.0,8.0,86,0.00,,,0.00,0.000000,,2013-02-04 08:21:00,
2013-02-04 01:31:00,21.0,17.0,-100.00,South,174,6.0,8.0,86,0.00,,,0.00,0.000000,,2013-02-04 08:31:00,
2013-02-04 01:41:00,21.0,17.0,-100.00,South,174,6.0,8.0,86,0.00,,,0.00,0.000000,,2013-02-04 08:41:00,
2013-02-04 02:11:00,22.0,18.0,-100.00,SSE,153,3.0,11.0,85,0.00,,,0.00,0.000000,,2013-02-04 09:11:00,
2013-02-04 02:21:00,22.0,18.0,-100.00,SSE,153,3.0,11.0,85,0.00,,,0.00,0.000000,,2013-02-04 09:21:00,
2013-02-04 02:31:00,22.0,18.0,-100.00,SSE,153,3.0,11.0,85,0.00,,,0.00,0.000000,,2013-02-04 09:31:00,
2013-02-04 02:41:00,22.0,18.0,-100.00,SSE,153,3.0,11.0,85,0.00,,,0.00,0.000000,,2013-02-04 09:41:00,
2013-02-04 03:11:00,21.0,16.0,-100.00,South,171,4.0,7.0,80,0.00,,,0.00,0.000000,,2013-02-04 10:11:00,
2013-02-04 03:21:00,21.0,16.0,-100.00,South,171,4.0,7.0,80,0.00,,,0.00,0.000000,,2013-02-04 10:21:00,
2013-02-04 03:32:00,21.0,16.0,-100.00,South,171,4.0,7.0,80,0.00,,,0.00,0.000000,,2013-02-04 10:32:00,
2013-02-04 03:41:00,21.0,16.0,-100.00,South,171,4.0,7.0,80,0.00,,,0.00,0.000000,,2013-02-04 10:41:00,
2013-02-04 04:11:00,21.0,16.0,-100.00,South,181,7.0,9.0,79,0.00,,,0.00,0.000000,,2013-02-04 11:11:00,
2013-02-04 04:22:00,21.0,16.0,-100.00,South,181,7.0,9.0,79,0.00,,,0.00,0.000000,,2013-02-04 11:22:00,
2013-02-04 04:32:00,21.0,16.0,-100.00,South,181,7.0,9.0,79,0.00,,,0.00,0.000000,,2013-02-04 11:32:00,
2013-02-04 04:41:00,21.0,16.0,-100.00,South,181,7.0,9.0,79,0.00,,,0.00,0.000000,,2013-02-04 11:41:00,
2013-02-04 05:12:00,21.0,16.0,-100.00,South,182,2.0,7.0,80,0.00,,,0.00,0.000000,,2013-02-04 12:12:00,
2013-02-04 05:21:00,21.0,16.0,-100.00,South,182,2.0,7.0,80,0.00,,,0.00,0.000000,,2013-02-04 12:21:00,
2013-02-04 05:32:00,21.0,16.0,-100.00,South,182,2.0,7.0,80,0.00,,,0.00,0.000000,,2013-02-04 12:32:00,
2013-02-04 05:42:00,21.0,16.0,-100.00,South,182,2.0,7.0,80,0.00,,,0.00,0.000000,,2013-02-04 12:42:00,
2013-02-04 06:11:00,21.0,16.0,-100.00,South,188,4.0,8.0,79,0.00,,,0.00,0.000000,,2013-02-04 13:11:00,
2013-02-04 06:21:00,21.0,16.0,-100.00,South,188,4.0,8.0,79,0.00,,,0.00,0.000000,,2013-02-04 13:21:00,
2013-02-04 06:32:00,21.0,16.0,-100.00,South,188,4.0,8.0,79,0.00,,,0.00,0.000000,,2013-02-04 13:32:00,
2013-02-04 06:41:00,21.0,16.0,-100.00,South,188,4.0,8.0,79,0.00,,,0.00,0.000000,,2013-02-04 13:41:00,
2013-02-04 07:11:00,21.0,16.0,-100.00,SSE,149,0.0,3.0,82,0.00,,,0.00,0.000000,,2013-02-04 14:11:00,
2013-02-04 07:21:00,21.0,16.0,-100.00,SSE,149,0.0,3.0,82,0.00,,,0.00,0.000000,,2013-02-04 14:21:00,
2013-02-04 07:32:00,21.0,16.0,-100.00,SSE,149,0.0,3.0,82,0.00,,,0.00,0.000000,,2013-02-04 14:32:00,
2013-02-04 07:42:00,21.0,16.0,-100.00,SSE,149,0.0,3.0,82,0.00,,,0.00,0.000000,,2013-02-04 14:42:00,
2013-02-04 08:12:00,20.0,13.0,-100.00,South,179,5.0,6.0,75,0.00,,,0.00,5.000000,,2013-02-04 15:12:00,
2013-02-04 08:23:00,20.0,13.0,-100.00,South,179,5.0,6.0,75,0.00,,,0.00,5.000000,,2013-02-04 15:23:00,
2013-02-04 08:33:00,20.0,13.0,-100.00,South,179,5.0,6.0,75,0.00,,,0.00,5.000000,,2013-02-04 15:33:00,
2013-02-04 08:43:00,20.0,13.0,-100.00,South,179,5.0,6.0,75,0.00,,,0.00,5.000000,,2013-02-04 15:43:00,
2013-02-04 09:11:00,35.0,19.0,-100.00,East,90,0.0,6.0,52,0.00,,,0.00,151.000000,,2013-02-04 16:11:00,
2013-02-04 09:22:00,35.0,19.0,-100.00,East,90,0.0,6.0,52,0.00,,,0.00,151.000000,,2013-02-04 16:22:00,
2013-02-04 09:32:00,35.0,19.0,-100.00,East,90,0.0,6.0,52,0.00,,,0.00,151.000000,,2013-02-04 16:32:00,
2013-02-04 11:11:00,40.0,23.0,-100.00,North,356,3.0,5.0,51,-99.99,,,0.00,472.000000,,2013-02-04 18:11:00,
2013-02-04 11:22:00,40.0,23.0,-100.00,North,356,3.0,5.0,51,-99.99,,,0.00,472.000000,,2013-02-04 18:22:00,
2013-02-04 11:31:00,40.0,23.0,-100.00,North,356,3.0,5.0,51,-99.99,,,0.00,472.000000,,2013-02-04 18:31:00,
2013-02-04 11:41:00,40.0,23.0,-100.00,North,356,3.0,5.0,51,-99.99,,,0.00,472.000000,,2013-02-04 18:41:00,
2013-02-04 12:11:00,38.0,24.0,-100.00,NNW,331,7.0,11.0,57,0.00,,,0.00,621.000000,,2013-02-04 19:11:00,
2013-02-04 12:22:00,38.0,24.0,-100.00,NNW,331,7.0,11.0,57,0.00,,,0.00,621.000000,,2013-02-04 19:22:00,
2013-02-04 12:31:00,38.0,24.0,-100.00,NNW,331,7.0,11.0,57,0.00,,,0.00,621.000000,,2013-02-04 19:31:00,
2013-02-04 12:41:00,38.0,24.0,-100.00,NNW,331,7.0,11.0,57,0.00,,,0.00,621.000000,,2013-02-04 19:41:00,
2013-02-04 13:12:00,41.0,26.0,-100.00,NNW,337,5.0,11.0,54,0.00,,,0.00,681.000000,,2013-02-04 20:12:00,
2013-02-04 13:21:00,41.0,26.0,-100.00,NNW,337,5.0,11.0,54,0.00,,,0.00,681.000000,,2013-02-04 20:21:00,
2013-02-04 13:32:00,41.0,26.0,-100.00,NNW,337,5.0,11.0,54,0.00,,,0.00,681.000000,,2013-02-04 20:32:00,
2013-02-04 13:42:00,41.0,26.0,-100.00,NNW,337,5.0,11.0,54,0.00,,,0.00,681.000000,,2013-02-04 20:42:00,
2013-02-04 14:11:00,42.0,26.0,-100.00,NW,309,5.0,11.0,53,0.00,,,0.00,680.000000,,2013-02-04 21:11:00,
2013-02-04 14:22:00,42.0,26.0,-100.00,NW,309,5.0,11.0,53,0.00,,,0.00,680.000000,,2013-02-04 21:22:00,
2013-02-04 14:31:00,42.0,26.0,-100.00,NW,309,5.0,11.0,53,0.00,,,0.00,680.000000,,2013-02-04 21:31:00,
2013-02-04 14:42:00,42.0,26.0,-100.00,NW,309,5.0,11.0,53,0.00,,,0.00,680.000000,,2013-02-04 21:42:00,
2013-02-04 15:12:00,40.0,28.0,-100.00,NW,325,7.0,12.0,61,0.00,,,-99.99,576.000000,,2013-02-04 22:12:00,
2013-02-04 15:21:00,40.0,28.0,-100.00,NW,325,7.0,12.0,61,0.00,,,-99.99,576.000000,,2013-02-04 22:21:00,
2013-02-04 15:32:00,40.0,28.0,-100.00,NW,325,7.0,12.0,61,0.00,,,-99.99,576.000000,,2013-02-04 22:32:00,
2013-02-04 15:41:00,40.0,28.0,-100.00,NW,325,7.0,12.0,61,0.00,,,-99.99,576.000000,,2013-02-04 22:41:00,
2013-02-04 16:11:00,39.0,25.0,-100.00,North,9,3.0,8.0,57,0.00,,,0.00,427.000000,,2013-02-04 23:11:00,
2013-02-04 16:21:00,39.0,25.0,-100.00,North,9,3.0,8.0,57,0.00,,,0.00,427.000000,,2013-02-04 23:21:00,
2013-02-04 16:32:00,39.0,25.0,-100.00,North,9,3.0,8.0,57,0.00,,,0.00,427.000000,,2013-02-04 23:32:00,
2013-02-04 16:41:00,39.0,25.0,-100.00,North,9,3.0,8.0,57,0.00,,,0.00,427.000000,,2013-02-04 23:41:00,
2013-02-04 17:11:00,36.0,25.0,-100.00,NNE,28,4.0,13.0,63,0.00,,,0.00,253.000000,,2013-02-05 00:11:00,
2013-02-04 17:21:00,36.0,25.0,-100.00,NNE,28,4.0,13.0,63,0.00,,,0.00,253.000000,,2013-02-05 00:21:00,
2013-02-04 17:31:00,36.0,25.0,-100.00,NNE,28,4.0,13.0,63,0.00,,,0.00,253.000000,,2013-02-05 00:31:00,
2013-02-04 17:41:00,36.0,25.0,-100.00,NNE,28,4.0,13.0,63,0.00,,,0.00,253.000000,,2013-02-05 00:41:00,
2013-02-04 18:11:00,28.0,22.0,-100.00,SW,232,0.0,4.0,79,0.00,,,0.00,39.000000,,2013-02-05 01:11:00,
2013-02-04 18:21:00,28.0,22.0,-100.00,SW,232,0.0,4.0,79,0.00,,,0.00,39.000000,,2013-02-05 01:21:00,
2013-02-04 18:32:00,28.0,22.0,-100.00,SW,232,0.0,4.0,79,0.00,,,0.00,39.000000,,2013-02-05 01:32:00,
2013-02-04 18:42:00,28.0,22.0,-100.00,SW,232,0.0,4.0,79,0.00,,,0.00,39.000000,,2013-02-05 01:42:00,
2013-02-04 19:11:00,26.0,22.0,-100.00,SE,144,5.0,7.0,83,0.00,,,0.00,0.000000,,2013-02-05 02:11:00,
2013-02-04 19:21:00,26.0,22.0,-100.00,SE,144,5.0,7.0,83,0.00,,,0.00,0.000000,,2013-02-05 02:21:00,
2013-02-04 19:31:00,26.0,22.0,-100.00,SE,144,5.0,7.0,83,0.00,,,0.00,0.000000,,2013-02-05 02:31:00,
2013-02-04 19:41:00,26.0,22.0,-100.00,SE,144,5.0,7.0,83,0.00,,,0.00,0.000000,,2013-02-05 02:41:00,
2013-02-04 20:11:00,23.0,19.0,-100.00,SSE,165,5.0,7.0,86,0.00,,,0.00,0.000000,,2013-02-05 03:11:00,
2013-02-04 20:21:00,23.0,19.0,-100.00,SSE,165,5.0,7.0,86,0.00,,,0.00,0.000000,,2013-02-05 03:21:00,
2013-02-04 20:31:00,23.0,19.0,-100.00,SSE,165,5.0,7.0,86,0.00,,,0.00,0.000000,,2013-02-05 03:31:00,
2013-02-04 20:41:00,23.0,19.0,-100.00,SSE,165,5.0,7.0,86,0.00,,,0.00,0.000000,,2013-02-05 03:41:00,
2013-02-04 21:11:00,23.0,19.0,-100.00,South,179,4.0,8.0,84,0.00,,,0.00,0.000000,,2013-02-05 04:11:00,
2013-02-04 21:21:00,23.0,19.0,-100.00,South,179,4.0,8.0,84,0.00,,,0.00,0.000000,,2013-02-05 04:21:00,
2013-02-04 21:31:00,23.0,19.0,-100.00,South,179,4.0,8.0,84,0.00,,,0.00,0.000000,,2013-02-05 04:31:00,
2013-02-04 21:41:00,23.0,19.0,-100.00,South,179,4.0,8.0,84,0.00,,,0.00,0.000000,,2013-02-05 04:41:00,
2013-02-04 22:11:00,24.0,18.0,-100.00,SE,130,2.0,9.0,78,0.00,,,0.00,0.000000,,2013-02-05 05:11:00,
2013-02-04 22:21:00,24.0,18.0,-100.00,SE,130,2.0,9.0,78,0.00,,,0.00,0.000000,,2013-02-05 05:21:00,
2013-02-04 22:31:00,24.0,18.0,-100.00,SE,130,2.0,9.0,78,0.00,,,0.00,0.000000,,2013-02-05 05:31:00,
2013-02-04 22:42:00,24.0,18.0,-100.00,SE,130,2.0,9.0,78,0.00,,,0.00,0.000000,,2013-02-05 05:42:00,
2013-02-04 23:11:00,24.0,19.0,-100.00,South,170,4.0,6.0,82,0.00,,,0.00,0.000000,,2013-02-05 06:11:00,
2013-02-04 23:21:00,24.0,19.0,-100.00,South,170,4.0,6.0,82,0.00,,,0.00,0.000000,,2013-02-05 06:21:00,
2013-02-04 23:31:00,24.0,19.0,-100.00,South,170,4.0,6.0,82,0.00,,,0.00,0.000000,,2013-02-05 06:31:00,
2013-02-04 23:41:00,24.0,19.0,-100.00,South,170,4.0,6.0,82,0.00,,,0.00,0.000000,,2013-02-05 06:41:00,